createdAt,value
2023-01-23T00:01:26.420Z,2.20
2023-01-23T00:03:56.442Z,2.20
2023-01-23T00:06:24.987Z,2.20
2023-01-23T00:08:52.981Z,2.10
2023-01-23T00:11:22.771Z,2.20
2023-01-23T00:13:50.610Z,2.20
2023-01-23T00:16:21.105Z,2.10
2023-01-23T00:18:50.165Z,2.10
2023-01-23T00:21:20.795Z,2.10
2023-01-23T00:23:50.302Z,2.10
2023-01-23T00:26:20.125Z,2.10
2023-01-23T00:28:49.434Z,2.10
2023-01-23T00:31:20.313Z,2.10
2023-01-23T00:33:48.512Z,2.10
2023-01-23T00:36:16.607Z,2.20
2023-01-23T00:38:45.769Z,2.10
2023-01-23T00:41:13.603Z,2.10
2023-01-23T00:43:41.417Z,2.20
2023-01-23T00:46:09.304Z,2.10
2023-01-23T00:48:37.216Z,2.10
2023-01-23T00:51:05.691Z,2.10
2023-01-23T00:53:33.611Z,2.10
2023-01-23T00:56:02.724Z,2.10
2023-01-23T00:58:30.681Z,2.10
2023-01-23T01:00:58.426Z,2.10
2023-01-23T01:03:26.258Z,2.10
2023-01-23T01:05:54.177Z,2.10
2023-01-23T01:08:22.021Z,2.10
2023-01-23T01:10:49.787Z,2.10
2023-01-23T01:13:21.393Z,2.10
2023-01-23T01:15:50.097Z,2.10
2023-01-23T01:18:18.427Z,2.10
2023-01-23T01:20:46.306Z,2.10
2023-01-23T01:23:14.516Z,2.10
2023-01-23T01:25:42.614Z,2.10
2023-01-23T01:28:10.409Z,2.10
2023-01-23T01:30:40.763Z,2.10
2023-01-23T01:33:09.032Z,2.10
2023-01-23T01:35:37.039Z,2.00
2023-01-23T01:38:04.830Z,2.00
2023-01-23T01:40:34.911Z,2.00
2023-01-23T01:43:05.060Z,2.00
2023-01-23T01:46:22.021Z,2.00
2023-01-23T01:49:09.173Z,2.00
2023-01-23T01:51:43.213Z,2.00
2023-01-23T01:54:17.316Z,2.00
2023-01-23T01:56:49.642Z,2.00
2023-01-23T01:59:18.812Z,2.00
2023-01-23T02:01:51.309Z,2.00
2023-01-23T02:04:20.574Z,2.00
2023-01-23T02:06:48.639Z,2.00
2023-01-23T02:09:21.897Z,1.90
2023-01-23T02:11:50.956Z,1.90
2023-01-23T02:14:19.096Z,2.00
2023-01-23T02:16:51.012Z,2.00
2023-01-23T02:19:35.061Z,1.90
2023-01-23T02:22:11.351Z,1.90
2023-01-23T02:24:47.434Z,1.90
2023-01-23T02:27:16.684Z,2.00
2023-01-23T02:29:45.917Z,1.90
2023-01-23T02:32:13.738Z,2.00
2023-01-23T02:34:43.512Z,1.90
2023-01-23T02:37:11.574Z,2.00
2023-01-23T02:39:39.626Z,1.90
2023-01-23T02:42:08.462Z,2.00
2023-01-23T02:44:37.558Z,1.90
2023-01-23T02:47:07.899Z,2.00
2023-01-23T02:49:35.755Z,1.90
2023-01-23T02:52:03.536Z,2.00
2023-01-23T02:54:31.640Z,1.90
2023-01-23T02:56:59.751Z,1.90
2023-01-23T02:59:45.326Z,2.00
2023-01-23T03:02:15.662Z,2.00
2023-01-23T03:04:43.490Z,2.00
2023-01-23T03:07:13.351Z,2.00
2023-01-23T03:09:42.440Z,1.90
2023-01-23T03:12:10.725Z,2.00
2023-01-23T03:14:40.699Z,2.00
2023-01-23T03:17:10.901Z,2.00
2023-01-23T03:19:40.252Z,2.00
2023-01-23T03:22:08.132Z,2.00
2023-01-23T03:24:36.607Z,2.00
2023-01-23T03:27:04.854Z,1.90
2023-01-23T03:29:50.228Z,1.90
2023-01-23T03:32:18.093Z,1.90
2023-01-23T03:34:47.454Z,1.90
2023-01-23T03:37:17.315Z,1.90
2023-01-23T03:40:02.376Z,1.90
2023-01-23T03:42:30.280Z,1.90
2023-01-23T03:44:58.051Z,1.90
2023-01-23T03:47:26.489Z,1.90
2023-01-23T03:49:55.746Z,1.80
2023-01-23T03:52:24.068Z,1.90
2023-01-23T03:54:51.978Z,1.90
2023-01-23T03:57:19.998Z,1.80
2023-01-23T03:59:48.012Z,1.90
2023-01-23T04:02:15.797Z,1.90
2023-01-23T04:04:43.606Z,1.90
2023-01-23T04:07:12.734Z,1.80
2023-01-23T04:09:40.629Z,1.80
2023-01-23T04:12:08.464Z,1.80
2023-01-23T04:14:37.561Z,1.80
2023-01-23T04:17:05.979Z,1.80
2023-01-23T04:19:44.227Z,1.80
2023-01-23T04:22:13.416Z,1.80
2023-01-23T04:24:41.218Z,1.80
2023-01-23T04:27:09.063Z,1.90
2023-01-23T04:29:37.133Z,1.90
2023-01-23T04:32:05.674Z,1.90
2023-01-23T04:34:33.686Z,1.90
2023-01-23T04:37:01.493Z,1.90
2023-01-23T04:39:31.637Z,1.90
2023-01-23T04:41:59.393Z,1.90
2023-01-23T04:44:27.322Z,1.90
2023-01-23T04:46:55.142Z,1.90
2023-01-23T04:49:24.065Z,1.90
2023-01-23T04:51:52.474Z,1.90
2023-01-23T04:54:21.525Z,1.90
2023-01-23T04:56:50.737Z,1.90
2023-01-23T04:59:18.553Z,1.90
2023-01-23T05:01:46.447Z,1.90
2023-01-23T05:04:14.347Z,1.90
2023-01-23T05:06:42.104Z,1.90
2023-01-23T05:09:09.871Z,1.90
2023-01-23T05:11:37.650Z,1.90
2023-01-23T05:14:06.915Z,1.90
2023-01-23T05:16:34.805Z,1.90
2023-01-23T05:19:02.587Z,2.00
2023-01-23T05:21:30.405Z,1.90
2023-01-23T05:23:58.178Z,1.90
2023-01-23T05:26:26.031Z,1.90
2023-01-23T05:28:53.950Z,1.90
2023-01-23T05:31:23.236Z,2.00
2023-01-23T05:33:51.129Z,1.90
2023-01-23T05:36:19.069Z,1.90
2023-01-23T05:38:46.932Z,1.90
2023-01-23T05:41:14.817Z,1.90
2023-01-23T05:43:43.797Z,1.90
2023-01-23T05:46:11.683Z,1.90
2023-01-23T05:48:40.855Z,1.90
2023-01-23T05:51:08.796Z,1.90
2023-01-23T05:53:36.807Z,2.00
2023-01-23T05:56:07.613Z,1.90
2023-01-23T05:58:35.670Z,1.90
2023-01-23T06:01:03.650Z,1.90
2023-01-23T06:03:31.710Z,1.90
2023-01-23T06:06:01.819Z,1.90
2023-01-23T06:08:29.614Z,1.90
2023-01-23T06:10:59.505Z,1.90
2023-01-23T06:13:27.795Z,1.90
2023-01-23T06:15:58.148Z,1.90
2023-01-23T06:18:26.089Z,1.90
2023-01-23T06:21:00.660Z,1.90
2023-01-23T06:23:28.764Z,1.90
2023-01-23T06:26:00.763Z,1.90
2023-01-23T06:28:28.675Z,1.90
2023-01-23T06:31:01.049Z,1.90
2023-01-23T06:33:28.990Z,1.90
2023-01-23T06:36:00.731Z,1.90
2023-01-23T06:38:28.763Z,1.90
2023-01-23T06:40:56.575Z,1.80
2023-01-23T06:43:25.283Z,1.90
2023-01-23T06:45:53.197Z,1.90
2023-01-23T06:48:21.825Z,1.90
2023-01-23T06:50:49.798Z,1.80
2023-01-23T06:53:22.096Z,1.80
2023-01-23T06:55:49.919Z,1.80
2023-01-23T06:58:17.716Z,1.80
2023-01-23T07:00:45.533Z,1.80
2023-01-23T07:03:15.142Z,1.80
2023-01-23T07:05:43.497Z,1.80
2023-01-23T07:08:11.551Z,1.80
2023-01-23T07:10:40.789Z,1.80
2023-01-23T07:13:10.138Z,1.80
2023-01-23T07:15:40.884Z,1.80
2023-01-23T07:18:10.127Z,1.80
2023-01-23T07:20:38.266Z,1.80
2023-01-23T07:23:06.049Z,1.80
2023-01-23T07:25:33.895Z,1.80
2023-01-23T07:28:03.075Z,1.80
2023-01-23T07:30:30.916Z,1.80
2023-01-23T07:32:59.075Z,1.80
2023-01-23T07:35:28.605Z,1.80
2023-01-23T07:37:56.896Z,1.80
2023-01-23T07:40:27.538Z,1.80
2023-01-23T07:42:57.311Z,1.70
2023-01-23T07:45:26.589Z,1.80
2023-01-23T07:47:54.377Z,1.80
2023-01-23T07:50:22.542Z,1.80
2023-01-23T07:52:50.500Z,1.80
2023-01-23T07:55:18.476Z,1.80
2023-01-23T07:57:46.335Z,1.80
2023-01-23T08:00:14.536Z,1.80
2023-01-23T08:02:46.691Z,1.80
2023-01-23T08:05:16.601Z,1.80
2023-01-23T08:07:44.507Z,1.80
2023-01-23T08:10:13.167Z,1.80
2023-01-23T08:12:41.113Z,1.80
2023-01-23T08:15:09.907Z,1.80
2023-01-23T08:17:37.794Z,1.80
2023-01-23T08:20:07.910Z,1.80
2023-01-23T08:22:37.276Z,1.80
2023-01-23T08:25:06.038Z,1.80
2023-01-23T08:27:33.863Z,1.90
2023-01-23T08:30:01.692Z,1.80
2023-01-23T08:32:29.556Z,1.90
2023-01-23T08:35:00.134Z,1.90
2023-01-23T08:37:29.342Z,1.80
2023-01-23T08:39:57.210Z,1.80
2023-01-23T08:42:27.717Z,1.90
2023-01-23T08:44:55.629Z,1.80
2023-01-23T08:47:23.779Z,1.80
2023-01-23T08:49:51.639Z,1.80
2023-01-23T08:52:19.424Z,1.90
2023-01-23T08:54:48.603Z,1.90
2023-01-23T08:57:16.396Z,1.90
2023-01-23T08:59:44.424Z,1.90
2023-01-23T09:02:13.571Z,1.90
2023-01-23T09:04:41.609Z,1.90
2023-01-23T09:07:09.411Z,1.90
2023-01-23T09:09:37.449Z,1.90
2023-01-23T09:12:07.214Z,1.90
2023-01-23T09:14:35.385Z,1.90
2023-01-23T09:17:03.272Z,2.00
2023-01-23T09:19:32.214Z,1.90
2023-01-23T09:22:00.055Z,2.00
2023-01-23T09:24:27.863Z,2.00
2023-01-23T09:26:59.226Z,2.00
2023-01-23T09:29:28.426Z,2.00
2023-01-23T09:31:56.513Z,2.00
2023-01-23T09:34:24.477Z,2.00
2023-01-23T09:36:53.170Z,2.00
2023-01-23T09:39:20.991Z,2.00
2023-01-23T09:41:50.231Z,2.00
2023-01-23T09:44:23.631Z,2.00
2023-01-23T09:46:55.988Z,2.00
2023-01-23T09:49:29.074Z,2.00
2023-01-23T09:52:01.571Z,2.00
2023-01-23T09:54:44.482Z,2.00
2023-01-23T09:57:19.292Z,2.10
2023-01-23T09:59:59.790Z,2.10
2023-01-23T10:02:30.486Z,2.10
2023-01-23T10:05:02.481Z,2.10
2023-01-23T10:07:48.041Z,2.10
2023-01-23T10:10:37.906Z,2.10
2023-01-23T10:13:12.046Z,2.10
2023-01-23T10:16:19.486Z,2.10
2023-01-23T10:19:03.531Z,2.10
2023-01-23T10:21:37.775Z,2.10
2023-01-23T10:24:23.667Z,2.10
2023-01-23T10:26:51.965Z,2.10
2023-01-23T10:29:31.535Z,2.10
2023-01-23T10:32:01.726Z,2.20
2023-01-23T10:34:37.940Z,2.10
2023-01-23T10:37:14.654Z,2.10
2023-01-23T10:39:48.598Z,2.10
2023-01-23T10:42:20.879Z,2.10
2023-01-23T10:44:48.965Z,2.10
2023-01-23T10:47:21.733Z,2.20
2023-01-23T10:49:51.066Z,2.20
2023-01-23T10:52:34.611Z,2.20
2023-01-23T10:55:03.758Z,2.20
2023-01-23T10:57:38.647Z,2.20
2023-01-23T11:00:21.194Z,2.20
2023-01-23T11:02:49.239Z,2.20
2023-01-23T11:05:51.145Z,2.20
2023-01-23T11:08:28.551Z,2.20
2023-01-23T11:11:19.050Z,2.20
2023-01-23T11:13:48.443Z,2.20
2023-01-23T11:16:18.638Z,2.20
2023-01-23T11:18:53.188Z,2.20
2023-01-23T11:21:23.700Z,2.20
2023-01-23T11:24:09.400Z,2.20
2023-01-23T11:26:43.230Z,2.30
2023-01-23T11:29:22.517Z,2.30
2023-01-23T11:31:53.751Z,2.30
2023-01-23T11:34:26.100Z,2.30
2023-01-23T11:37:00.793Z,2.30
2023-01-23T11:39:43.638Z,2.30
2023-01-23T11:42:13.001Z,2.30
2023-01-23T11:44:46.379Z,2.30
2023-01-23T11:47:32.739Z,2.30
2023-01-23T11:50:12.403Z,2.30
2023-01-23T11:52:51.307Z,2.30
2023-01-23T11:55:43.346Z,2.40
2023-01-23T11:58:23.508Z,2.40
2023-01-23T12:00:59.993Z,2.40
2023-01-23T12:04:03.228Z,2.40
2023-01-23T12:06:40.331Z,2.40
2023-01-23T12:09:14.622Z,2.40
2023-01-23T12:11:57.881Z,2.40
2023-01-23T12:14:31.831Z,2.40
2023-01-23T12:17:24.719Z,2.40
2023-01-23T12:20:07.773Z,2.40
2023-01-23T12:22:48.306Z,2.40
2023-01-23T12:25:27.397Z,2.40
2023-01-23T12:28:02.568Z,2.40
2023-01-23T12:30:50.196Z,2.50
2023-01-23T12:33:27.828Z,2.50
2023-01-23T12:36:12.032Z,2.50
2023-01-23T12:38:52.246Z,2.50
2023-01-23T12:41:32.669Z,2.50
2023-01-23T12:44:06.081Z,2.50
2023-01-23T12:46:40.402Z,2.50
2023-01-23T12:49:20.961Z,2.60
2023-01-23T12:51:53.579Z,2.60
2023-01-23T12:54:31.616Z,2.60
2023-01-23T12:57:02.183Z,2.60
2023-01-23T12:59:48.892Z,2.60
2023-01-23T13:02:23.266Z,2.60
2023-01-23T13:05:07.700Z,2.60
2023-01-23T13:07:45.924Z,2.60
2023-01-23T13:10:47.947Z,2.60
2023-01-23T13:13:18.754Z,2.60
2023-01-23T13:16:03.273Z,2.70
2023-01-23T13:18:51.168Z,2.70
2023-01-23T13:21:36.967Z,2.70
2023-01-23T13:24:58.567Z,2.70
2023-01-23T13:27:39.853Z,2.70
2023-01-23T13:30:39.683Z,2.70
2023-01-23T13:33:55.294Z,2.70
2023-01-23T13:36:37.496Z,2.70
2023-01-23T13:39:22.562Z,2.70
2023-01-23T13:41:53.131Z,2.70
2023-01-23T13:44:35.894Z,2.70
2023-01-23T14:20:24.668Z,2.80
2023-01-23T14:22:55.812Z,2.80
2023-01-23T14:25:23.794Z,2.80
2023-01-23T14:28:03.816Z,2.80
2023-01-23T14:30:31.809Z,2.80
2023-01-23T14:33:01.140Z,2.80
2023-01-23T14:35:31.132Z,2.80
2023-01-23T14:38:03.434Z,2.90
2023-01-23T14:40:43.127Z,2.80
2023-01-23T14:43:20.556Z,2.80
2023-01-23T14:45:50.263Z,2.80
2023-01-23T14:48:21.998Z,2.90
2023-01-23T14:50:49.912Z,2.90
2023-01-23T14:53:18.215Z,2.90
2023-01-23T14:55:50.680Z,2.90
2023-01-23T14:58:23.615Z,2.90
2023-01-23T15:00:53.122Z,2.90
2023-01-23T15:03:43.727Z,2.90
2023-01-23T15:06:19.971Z,2.90
2023-01-23T15:08:48.884Z,2.90
2023-01-23T15:11:17.541Z,2.90
2023-01-23T15:13:50.245Z,2.90
2023-01-23T15:16:22.236Z,2.90
2023-01-23T15:18:55.756Z,3.00
2023-01-23T15:21:30.888Z,3.00
2023-01-23T15:24:17.362Z,3.00
2023-01-23T15:26:46.561Z,3.00
2023-01-23T15:29:20.508Z,3.00
2023-01-23T15:31:51.095Z,3.00
2023-01-23T15:34:26.304Z,3.00
2023-01-23T15:36:57.202Z,3.00
2023-01-23T15:39:28.057Z,3.00
2023-01-23T15:41:58.691Z,3.00
2023-01-23T15:44:29.617Z,3.00
2023-01-23T15:47:00.947Z,3.00
2023-01-23T15:49:30.491Z,3.00
2023-01-23T15:51:59.031Z,2.90
2023-01-23T15:54:32.370Z,2.90
2023-01-23T15:57:07.562Z,2.90
2023-01-23T15:59:37.149Z,2.90
2023-01-23T16:02:05.382Z,2.90
2023-01-23T16:04:34.730Z,2.90
2023-01-23T16:07:06.551Z,2.90
2023-01-23T16:09:37.850Z,2.90
2023-01-23T16:12:06.322Z,2.90
2023-01-23T16:14:41.231Z,2.90
2023-01-23T16:17:16.746Z,2.90
2023-01-23T16:19:46.458Z,2.90
2023-01-23T16:22:18.022Z,2.90
2023-01-23T16:24:45.892Z,2.80
2023-01-23T16:27:25.062Z,2.80
2023-01-23T16:29:52.974Z,2.80
2023-01-23T16:32:20.938Z,2.80
2023-01-23T16:34:50.179Z,2.80
2023-01-23T16:37:19.600Z,2.80
2023-01-23T16:39:47.928Z,2.80
2023-01-23T16:42:22.098Z,2.70
2023-01-23T16:44:50.127Z,2.70
2023-01-23T16:47:17.971Z,2.70
2023-01-23T16:49:54.293Z,2.70
2023-01-23T16:52:26.109Z,2.70
2023-01-23T16:54:56.388Z,2.70
2023-01-23T16:57:25.202Z,2.70
2023-01-23T16:59:56.125Z,2.70
2023-01-23T17:02:28.119Z,2.60
2023-01-23T17:04:56.089Z,2.60
2023-01-23T17:07:25.323Z,2.70
2023-01-23T17:09:53.106Z,2.60
2023-01-23T17:12:23.690Z,2.60
2023-01-23T17:14:52.900Z,2.70
2023-01-23T17:17:26.385Z,2.60
2023-01-23T17:19:55.027Z,2.60
2023-01-23T17:22:27.204Z,2.60
2023-01-23T17:24:55.008Z,2.70
2023-01-23T17:27:23.102Z,2.60
2023-01-23T17:29:50.974Z,2.60
2023-01-23T17:32:29.449Z,2.60
2023-01-23T17:34:58.073Z,2.60
2023-01-23T17:37:27.318Z,2.60
2023-01-23T17:39:55.305Z,2.60
2023-01-23T17:42:23.107Z,2.60
2023-01-23T17:44:51.090Z,2.60
2023-01-23T17:47:19.470Z,2.60
2023-01-23T17:49:52.720Z,2.60
2023-01-23T17:52:21.736Z,2.60
2023-01-23T17:54:51.197Z,2.60
2023-01-23T17:57:19.006Z,2.60
2023-01-23T17:59:46.786Z,2.60
2023-01-23T18:02:25.422Z,2.60
2023-01-23T18:04:53.292Z,2.50
2023-01-23T18:07:21.159Z,2.60
2023-01-23T18:09:49.003Z,2.50
2023-01-23T18:12:27.318Z,2.50
2023-01-23T18:15:03.796Z,2.60
2023-01-23T18:17:43.324Z,2.60
2023-01-23T18:20:18.314Z,2.60
2023-01-23T18:22:46.655Z,2.60
2023-01-23T18:25:16.215Z,2.60
2023-01-23T18:27:50.063Z,2.60
2023-01-23T18:30:33.532Z,2.50
2023-01-23T18:33:33.622Z,2.50
2023-01-23T18:36:13.374Z,2.50
2023-01-23T18:38:54.594Z,2.50
2023-01-23T18:41:22.984Z,2.50
2023-01-23T18:43:58.265Z,2.40
2023-01-23T18:46:27.816Z,2.40
2023-01-23T18:48:56.242Z,2.50
2023-01-23T18:51:35.488Z,2.50
2023-01-23T18:54:13.438Z,2.40
2023-01-23T18:56:47.822Z,2.50
2023-01-23T18:59:23.767Z,2.40
2023-01-23T19:01:54.774Z,2.40
2023-01-23T19:04:34.641Z,2.40
2023-01-23T19:07:02.964Z,2.40
2023-01-23T19:09:35.461Z,2.40
2023-01-23T19:12:14.080Z,2.40
2023-01-23T19:15:01.041Z,2.40
2023-01-23T19:17:42.234Z,2.40
2023-01-23T19:20:17.484Z,2.40
2023-01-23T19:22:55.398Z,2.40
2023-01-23T19:25:23.757Z,2.40
2023-01-23T19:27:55.855Z,2.40
2023-01-23T19:30:26.571Z,2.40
2023-01-23T19:32:54.415Z,2.40
2023-01-23T19:35:23.384Z,2.40
2023-01-23T19:37:51.427Z,2.40
2023-01-23T19:40:19.385Z,2.40
2023-01-23T19:42:58.816Z,2.40
2023-01-23T19:45:34.763Z,2.40
2023-01-23T19:48:02.599Z,2.40
2023-01-23T19:50:30.497Z,2.30
2023-01-23T19:53:00.166Z,2.40
2023-01-23T19:55:30.387Z,2.40
2023-01-23T19:57:58.985Z,2.40
2023-01-23T20:00:29.243Z,2.40
2023-01-23T20:02:59.070Z,2.40
2023-01-23T20:05:27.395Z,2.40
2023-01-23T20:07:55.483Z,2.40
2023-01-23T20:10:23.803Z,2.40
2023-01-23T20:12:54.286Z,2.40
2023-01-23T20:15:24.122Z,2.40
2023-01-23T20:17:53.043Z,2.40
2023-01-23T20:20:23.279Z,2.40
2023-01-23T20:22:51.262Z,2.40
2023-01-23T20:25:19.495Z,2.40
2023-01-23T20:27:47.535Z,2.40
2023-01-23T20:30:17.450Z,2.50
2023-01-23T20:32:45.421Z,2.50
2023-01-23T20:35:13.450Z,2.50
2023-01-23T20:37:42.606Z,2.50
2023-01-23T20:40:11.867Z,2.50
2023-01-23T20:42:40.345Z,2.50
2023-01-23T20:45:09.290Z,2.50
2023-01-23T20:47:37.938Z,2.60
2023-01-23T20:50:06.561Z,2.60
2023-01-23T20:52:51.610Z,2.60
2023-01-23T20:55:21.135Z,2.60
2023-01-23T20:58:06.937Z,2.60
2023-01-23T21:00:42.179Z,2.60
2023-01-23T21:03:10.137Z,2.60
2023-01-23T21:05:38.015Z,2.70
2023-01-23T21:08:05.990Z,2.70
2023-01-23T21:10:35.443Z,2.70
2023-01-23T21:13:03.281Z,2.70
2023-01-23T21:15:33.175Z,2.70
2023-01-23T21:18:01.186Z,2.70
2023-01-23T21:20:29.015Z,2.70
2023-01-23T21:22:56.782Z,2.70
2023-01-23T21:25:24.760Z,2.70
2023-01-23T21:27:54.078Z,2.80
2023-01-23T21:30:22.023Z,2.80
2023-01-23T21:32:50.487Z,2.80
2023-01-23T21:35:19.307Z,2.80
2023-01-23T21:37:47.155Z,2.80
2023-01-23T21:40:15.401Z,2.80
2023-01-23T21:42:43.268Z,2.80
2023-01-23T21:45:12.893Z,2.80
2023-01-23T21:47:40.655Z,2.80
2023-01-23T21:50:10.045Z,2.80
2023-01-23T21:52:37.904Z,2.80
2023-01-23T21:55:06.600Z,2.80
2023-01-23T21:57:34.535Z,2.80
2023-01-23T22:00:20.040Z,2.80
2023-01-23T22:02:49.377Z,2.90
2023-01-23T22:05:17.486Z,2.90
2023-01-23T22:07:47.298Z,2.90
2023-01-23T22:10:15.624Z,2.90
2023-01-23T22:12:43.526Z,2.90
2023-01-23T22:15:11.926Z,2.90
2023-01-23T22:17:39.693Z,2.90
2023-01-23T22:20:10.565Z,2.90
2023-01-23T22:22:38.370Z,2.90
2023-01-23T22:25:07.135Z,2.90
2023-01-23T22:27:34.945Z,2.90
2023-01-23T22:30:02.989Z,2.90
2023-01-23T22:32:33.041Z,2.90
2023-01-23T22:35:01.004Z,2.90
2023-01-23T22:37:30.396Z,2.90
2023-01-23T22:39:58.446Z,2.90
2023-01-23T22:42:26.199Z,2.90
2023-01-23T22:44:53.981Z,2.90
2023-01-23T22:47:21.917Z,2.90
2023-01-23T22:49:49.680Z,2.90
2023-01-23T22:52:17.745Z,2.90
2023-01-23T22:54:46.836Z,2.90
2023-01-23T22:57:14.656Z,2.90
2023-01-23T22:59:42.467Z,2.90
2023-01-23T23:02:10.238Z,2.90
2023-01-23T23:04:38.044Z,2.90
2023-01-23T23:07:05.957Z,2.90
2023-01-23T23:09:33.725Z,2.90
2023-01-23T23:12:02.913Z,2.90
2023-01-23T23:14:30.744Z,2.90
2023-01-23T23:16:58.836Z,2.90
2023-01-23T23:19:26.789Z,2.90
2023-01-23T23:21:54.602Z,2.90
2023-01-23T23:24:22.625Z,2.90
2023-01-23T23:26:51.294Z,2.90
2023-01-23T23:29:20.410Z,2.90
2023-01-23T23:31:51.507Z,2.90
2023-01-23T23:34:19.811Z,2.90
2023-01-23T23:36:47.815Z,2.90
2023-01-23T23:39:15.719Z,2.90
2023-01-23T23:41:43.466Z,2.90
2023-01-23T23:44:11.485Z,2.90
2023-01-23T23:46:40.701Z,2.90
2023-01-23T23:49:08.969Z,2.90
2023-01-23T23:51:37.080Z,2.90
2023-01-23T23:54:04.974Z,2.90
2023-01-23T23:56:32.771Z,2.90
2023-01-23T23:59:00.585Z,2.90
